• Join FlightAware (Why Join?)
  • Login
  • US Flag 
02:05AM EDT


 

Airport Tracker/Info


-or-


 

Live Flight TrackerFlight Track Log ✈ CES5273 ✈ 08-May-2013 ✈ ZSSS / SHA - ZGSZ / SZX

Flight Track Log - Related Links

Times and Time Zones

All times are in EDT time to prevent confusion due to time zone crossing. See the CES5273 flight status page for this flight to view local times or setup timezone preferences in your user account.

Time Position Orientation Groundspeed Altitude Reporting Facility
EDT Latitude Longitude Course Direction KTS MPH feet Rate Location/Type
10:54AM 29.6294 119.8378 220° Southwest  Level Estimated
10:55AM 29.5506 119.7642 219° Southwest  Level Estimated
10:56AM 29.4717 119.6906 219° Southwest  Level Estimated
10:57AM 29.3927 119.6171 219° Southwest  Level Estimated
10:58AM 29.3137 119.5438 219° Southwest  Level Estimated
10:59AM 29.2347 119.4706 219° Southwest  Level Estimated
11:00AM 29.1557 119.3975 219° Southwest  Level Estimated
11:01AM 29.0766 119.3245 219° Southwest  Level Estimated
11:02AM 28.9974 119.2516 219° Southwest  Level Estimated
11:03AM 28.9182 119.1788 219° Southwest  Level Estimated
11:04AM 28.8390 119.1062 219° Southwest  Level Estimated
11:05AM 28.7598 119.0336 219° Southwest  Level Estimated
11:06AM 28.6805 118.9612 219° Southwest  Level Estimated
11:07AM 28.6011 118.8888 219° Southwest  Level Estimated
11:08AM 28.5217 118.8166 219° Southwest  Level Estimated
11:09AM 28.4423 118.7445 219° Southwest  Level Estimated
11:10AM 28.3629 118.6725 219° Southwest  Level Estimated
11:11AM 28.2834 118.6006 219° Southwest  Level Estimated
11:12AM 28.2039 118.5288 219° Southwest  Level Estimated
11:13AM 28.1243 118.4571 218° Southwest  Level Estimated
11:14AM 28.0447 118.3856 218° Southwest  Level Estimated
11:15AM 27.9650 118.3141 218° Southwest  Level Estimated
11:16AM 27.8854 118.2427 218° Southwest  Level Estimated
11:17AM 27.8057 118.1715 218° Southwest  Level Estimated
11:18AM 27.7259 118.1003 218° Southwest  Level Estimated
11:19AM 27.6461 118.0293 218° Southwest  Level Estimated
11:20AM 27.5663 117.9583 218° Southwest  Level Estimated
11:21AM 27.4864 117.8875 218° Southwest  Level Estimated
11:22AM 27.4065 117.8167 218° Southwest  Level Estimated
11:23AM 27.3266 117.7461 218° Southwest  Level Estimated
11:24AM 27.2467 117.6755 218° Southwest  Level Estimated
11:25AM 27.1667 117.6051 218° Southwest  Level Estimated
11:26AM 27.0866 117.5348 218° Southwest  Level Estimated
11:27AM 27.0065 117.4645 218° Southwest  Level Estimated
11:28AM 26.9264 117.3944 218° Southwest  Level Estimated
11:29AM 26.8463 117.3243 218° Southwest  Level Estimated
11:30AM 26.7661 117.2544 218° Southwest  Level Estimated
11:31AM 26.6859 117.1845 218° Southwest  Level Estimated
11:32AM 26.6057 117.1148 218° Southwest  Level Estimated
11:33AM 26.5254 117.0452 218° Southwest  Level Estimated
11:34AM 26.4451 116.9756 218° Southwest  Level Estimated
11:35AM 26.3647 116.9062 218° Southwest  Level Estimated
11:36AM 26.2844 116.8368 218° Southwest  Level Estimated
11:37AM 26.2040 116.7676 218° Southwest  Level Estimated
11:38AM 26.1235 116.6984 218° Southwest  Level Estimated
11:39AM 26.0430 116.6293 218° Southwest  Level Estimated
11:40AM 25.9625 116.5604 218° Southwest  Level Estimated
11:41AM 25.8820 116.4915 218° Southwest  Level Estimated
11:42AM 25.8014 116.4227 218° Southwest  Level Estimated
11:43AM 25.7208 116.3540 218° Southwest  Level Estimated
11:44AM 25.6402 116.2854 217° Southwest  Level Estimated
11:45AM 25.5595 116.2169 217° Southwest  Level Estimated
11:46AM 25.4788 116.1485 217° Southwest  Level Estimated
11:47AM 25.3980 116.0802 217° Southwest  Level Estimated
11:48AM 25.3173 116.0120 217° Southwest  Level Estimated
11:49AM 25.2365 115.9438 217° Southwest  Level Estimated
11:50AM 25.1556 115.8758 217° Southwest  Level Estimated
11:51AM 25.0748 115.8078 217° Southwest  Level Estimated
11:52AM 24.9939 115.7399 217° Southwest  Level Estimated
11:53AM 24.9130 115.6722 217° Southwest  Level Estimated
11:54AM 24.8320 115.6045 217° Southwest  Level Estimated
11:55AM 24.7510 115.5369 217° Southwest  Level Estimated
11:56AM 24.6700 115.4694 217° Southwest  Level Estimated
11:57AM 24.5890 115.4019 217° Southwest  Level Estimated
11:58AM 24.5079 115.3346 217° Southwest  Level Estimated
11:59AM 24.4268 115.2673 217° Southwest  Level Estimated
12:00PM 24.3457 115.2002 217° Southwest  Level Estimated
12:01PM 24.2645 115.1331 217° Southwest  Level Estimated
12:02PM 24.1833 115.0661 217° Southwest  Level Estimated
12:03PM 24.1021 114.9992 217° Southwest  Level Estimated
12:04PM 24.0209 114.9324 217° Southwest  Level Estimated
12:05PM 23.9396 114.8657 217° Southwest  Level Estimated
12:06PM 23.8583 114.7990 217° Southwest  Level Estimated
12:07PM 23.7769 114.7324 217° Southwest  Level Estimated
12:08PM 23.6956 114.6660 217° Southwest  Level Estimated
12:09PM 23.6142 114.5996 217° Southwest  Level Estimated
12:10PM 23.5328 114.5332 217° Southwest  Level Estimated
12:11PM 23.4513 114.4670 217° Southwest  Level Estimated
12:12PM 23.3698 114.4008 217° Southwest  Level Estimated
12:13PM 23.2883 114.3348 217° Southwest  Level Estimated
12:14PM 23.2068 114.2688 217° Southwest  Level Estimated
12:15PM 23.1252 114.2029 217° Southwest  Level Estimated
12:16PM 23.0436 114.1370 217° Southwest  Level Estimated
12:17PM 22.9620 114.0713 217° Southwest  Level Estimated
12:18PM 22.8804 114.0056 217° Southwest  Level Estimated
12:19PM 22.7987 113.9400 217° Southwest  Level Estimated
12:20PM 22.7170 113.8745 216° Southwest  Level Estimated
12:21PM 22.6395 113.8124 216° Southwest  Level Estimated
12:22PM 22.6395 113.8124 25° Northeast  Level Estimated
12:23PM 22.6395 113.8124 25° Northeast  Level Estimated
12:24PM 22.6395 113.8124 25° Northeast  Level Estimated
12:25PM 22.6395 113.8124 25° Northeast  Level Estimated
12:26PM 22.6395 113.8124 25° Northeast  Level Estimated
12:27PM 22.6395 113.8124 25° Northeast  Level Estimated
12:28PM 22.6395 113.8124 25° Northeast  Level Estimated
12:29PM 22.6395 113.8124 25° Northeast  Level Estimated
12:30PM 22.6395 113.8124 25° Northeast  Level Estimated
12:31PM 22.6395 113.8124 25° Northeast  Level Estimated
12:32PM 22.6395 113.8124 25° Northeast  Level Estimated
12:33PM 22.6395 113.8124 25° Northeast  Level Estimated
12:34PM 22.6395 113.8124 25° Northeast  Level Estimated
12:35PM 22.6395 113.8124 25° Northeast  Level Estimated
12:36PM 22.6395 113.8124 25° Northeast  Level Estimated
12:37PM 22.6395 113.8124 25° Northeast  Level Estimated
12:38PM 22.6395 113.8124 25° Northeast  Level Estimated
12:39PM 22.6395 113.8124 25° Northeast  Level Estimated
12:40PM 22.6395 113.8124 25° Northeast  Level Estimated
12:41PM 22.6395 113.8124 25° Northeast  Level Estimated
12:42PM 22.6395 113.8124 25° Northeast  Level Estimated
12:43PM 22.6395 113.8124 25° Northeast  Level Estimated
12:44PM 22.6395 113.8124 25° Northeast  Level Estimated
12:45PM 22.6395 113.8124 25° Northeast  Level Estimated